Tiempo atmosférico en la estación meteorológica de Punta Galea, Bizkaia (90 m.)



Fecha
DESCASC
Temp. máxima en grados centígrados (hora)
DESCASC
Temp. mínima en grados centígrados (hora)
DESCASC
Temp. media en grados centígrados
DESCASC
Racha de viento máxima en m/sg (hora)
DESCASC
Velocidad máxima media en intervalos de 10 minutos(hora)
DESCASC
Precipitaciones diarias en mm
DESCASC
Precipitaciones de 00:00 a 06:00 en mm
DESCASC
Precipitaciones de 06:00 a 12:00 en mm
DESCASC
Precipitaciones de 12:00 a 18:00 en mm
DESCASC
Precipitaciones de 18:00 a 24:00 en mm
DESCASC
14-12-2019 16.6 (14:20) 11.8 (04:40) 14.2 16.67 (23:30) 6.39 (22:20) 0 0 0 0 0
13-12-2019 15.6 (14:00) 13.2 (23:59) 14.4 27.5 (10:10) 16.39 (06:10) 1.1 0.7 0 0.4 0
12-12-2019 14 (22:50) 8.5 (05:50) 11.3 21.67 (23:40) 12.78 (23:40) 25.8 6.4 1.1 11.5 6.8
11-12-2019 13.3 (05:10) 9 (00:00) 11.2 20.83 (18:40) 10.56 (18:40) 17.2 0 8.2 0 9
10-12-2019 15.3 (15:30) 6.9 (00:00) 11.1 6.94 (11:30) 3.61 (11:30) 0 0 0 0 0
09-12-2019 12.6 (07:10) 10.4 (00:00) 11.5 18.06 (10:30) 10 (07:10) 4.5 0 4.5 0 0
08-12-2019 13.8 (15:50) 9.4 (00:00) 11.6 11.67 (16:10) 7.78 (16:00) 4.4 0 0.5 3.9 0
07-12-2019 14.9 (15:10) 6.6 (00:00) 10.7 8.06 (04:30) 3.06 (07:40) 0 0 0 0 0
06-12-2019 12.4 (12:40) 5.5 (00:00) 8.9 5 (08:40) 2.78 (08:10) 0 0 0 0 0
05-12-2019 12.6 (15:00) 8.4 (00:00) 10.5 8.61 (00:20) 5.28 (00:20) 0 0 0 0 0
04-12-2019 11.3 (19:30) 2.4 (00:00) 6.9 12.22 (23:59) 6.67 (23:30) 0.2 0 0 0 0.2
03-12-2019 9.3 (12:30) 3.1 (00:00) 6.2 8.33 (00:50) 4.72 (00:50) 0.1 0.1 0 0 0
02-12-2019 10.6 (12:10) 8.1 (00:00) 9.4 11.11 (09:20) 6.39 (10:30) 6.5 5.3 1.2 0 0
01-12-2019 14.4 (12:10) 7.3 (00:00) 10.8 9.17 (18:30) 5.28 (18:30) 16.5 0.1 0 0 16.4
30-11-2019 18.6 (09:10) 7.7 (00:00) 13.2 16.67 (10:20) 10 (10:20) 13.7 0 3.4 10.3 0
29-11-2019 16.6 (14:40) 10.1 (00:00) 13.4 6.94 (06:50) 3.89 (07:00) 0.6 0.5 0.1 0 0
28-11-2019 13.2 (13:50) 10.1 (00:00) 11.7 8.33 (08:10) 4.44 (08:50) 7.8 2.1 2.1 3.2 0.4
27-11-2019 15.7 (15:10) 10.4 (00:00) 13 12.5 (16:20) 5.28 (16:20) 1.4 0 0 1.2 0.2
26-11-2019 20 (18:30) 11.3 (00:00) 15.7 19.72 (20:50) 9.17 (21:10) 2 0 0 0 2
25-11-2019 15.9 (13:00) 10.6 (00:00) 13.3 9.17 (04:00) 4.17 (04:00) 0.6 0 0.6 0 0
24-11-2019 13.7 (23:59) 9.9 (00:00) 11.8 13.89 (00:10) 6.67 (03:50) 5.8 3.1 0.4 0 2.3
23-11-2019 14.8 (01:50) 9.9 (00:00) 12.3 26.67 (08:10) 15.83 (08:00) 35.5 8.7 14.7 9.8 2.3
22-11-2019 15.2 (20:50) 9.7 (00:00) 12.4 15.28 (20:50) 6.11 (11:50) 0.8 0 0 0.8 0
21-11-2019 15.8 (12:50) 7.4 (00:00) 11.6 9.72 (04:00) 3.89 (10:00) 0 0 0 0 0
20-11-2019 14.6 (13:20) 7.2 (00:00) 10.9 10.83 (18:40) 4.72 (17:50) 0.2 0 0 0.2 0
19-11-2019 13.1 (15:20) 4.8 (00:00) 9 7.5 (13:50) 3.33 (11:10) 0.8 0.8 0 0 0
18-11-2019 11.4 (15:30) 7.1 (00:00) 9.2 12.78 (11:30) 5.28 (05:20) 3.9 0.1 3.3 0 0.5
17-11-2019 11.4 (13:50) 6.7 (00:00) 9 11.94 (16:40) 6.11 (16:10) 23.6 2.3 4.8 6.4 10.1
16-11-2019 9.9 (15:00) 3.3 (00:00) 6.6 14.44 (15:00) 7.5 (15:00) 26.6 0 12.8 9.9 3.9

Gráficas

Temp. máximas Temp. mínimas Temp. medias Precipitaciones Rachas de viento máximas Velocidades máximas media en intervalos de 10 minutos

Datos horarios

Fecha y hora oficial Temperatura (ºC) Velocidad del viento (km/h) Dirección del viento Racha (km/h) Dirección de racha Precipitación (mm) Presión (hPa) Tendencia (hPa) Humedad (%)
2019-12-15 23:00:00 15.2 11 Sur 25 Sur 0 996 -1.3 57
2019-12-15 22:00:00 15.7 10 Sur 24 Sur 0 996.4 -1.2 58
2019-12-15 21:00:00 15.3 8 Sur 24 Sur 0 996.8 -1 63
2019-12-15 20:00:00 13.9 3 Sudoeste 9 Sudeste 0 997.3 -0.4 85
2019-12-15 19:00:00 13.9 0 Calma 15 Sur 0 997.6 -0.2 91
2019-12-15 18:00:00 15.1 4 Sudoeste 27 Sudoeste 0 997.8 -0.1 75
2019-12-15 17:00:00 15.7 12 Sur 33 Sudoeste 0 997.7 -0.4 60
2019-12-15 16:00:00 16.6 14 Sudoeste 44 Sudoeste 0 997.8 -0.4 54
2019-12-15 15:00:00 17.4 17 Sudoeste 44 Oeste 0 997.9 -1 50
2019-12-15 14:00:00 17.2 20 Sudoeste 60 Sur 0 998.1 -1.3 51
2019-12-15 13:00:00 16.9 15 Sudoeste 47 Sudoeste 0 998.2 -1.2 52
2019-12-15 12:00:00 17.3 16 Sudoeste 47 Sudoeste 0 998.9 -0.2 54
2019-12-15 11:00:00 16.3 16 Sudoeste 41 Sudoeste 0 999.4 -0.1 57
2019-12-15 10:00:00 15.1 15 Sudoeste 31 Sur 0 999.4 0.8 65
2019-12-15 09:00:00 12.1 0 Calma 8 Nordeste 0 999.1 1 94
2019-12-15 08:00:00 12.8 4 Noroeste 31 Oeste 0 999.5 1.5 92
2019-12-15 07:00:00 15.5 17 Sudoeste 45 Sur 0 998.6 0.1 60
2019-12-15 06:00:00 15.3 19 Sudoeste 45 Sudoeste 0 998.1 -0.4 60
2019-12-15 05:00:00 15.5 19 Sudoeste 52 Sudoeste 0 998 -0.7 60
2019-12-15 04:00:00 15.7 24 Sudoeste 59 Sudoeste 0 998.5 -0.5 58
2019-12-15 03:00:00 15.6 22 Sudoeste 54 Sudoeste 0 998.5 -0.6 59
2019-12-15 02:00:00 15.7 22 Sudoeste 63 Sudoeste 0 998.7 -0.7 60
2019-12-15 01:00:00 15.7 24 Sudoeste 52 Sudoeste 0 999 -0.6 60
2019-12-15 00:00:00 15.8 21 Sudoeste 60 Sur 0 999.1 -1.2 60
2019-12-14 23:00:00 15.9 20 Sudoeste 55 Oeste 0 999.4 -1 58
2019-12-14 22:00:00 16.2 23 Sudoeste 48 Sudoeste 0 999.6 -0.6 59
2019-12-14 21:00:00 15.9 14 Sudoeste 39 Sudoeste 0 1000.3 0.1 59
2019-12-14 20:00:00 16 15 Sudoeste 39 Sudoeste 0 1000.4 -0.4 57
2019-12-14 19:00:00 16 15 Sudoeste 37 Sudoeste 0 1000.2 -1 57
2019-12-14 18:00:00 16 15 Sudoeste 31 Sudoeste 0 1000.2 -1.4 57
2019-12-14 17:00:00 15.8 13 Sudoeste 33 Sudoeste 0 1000.8 -1.6 60
2019-12-14 16:00:00 16 14 Sudoeste 30 Sur 0 1001.2 -2 60
2019-12-14 15:00:00 16.1 9 Sur 24 Sur 0 1001.6 -2.8 62
2019-12-14 14:00:00 16 10 Sur 32 Sur 0 1002.4 -2.1 63
2019-12-14 13:00:00 15.7 14 Sudoeste 29 Sur 0 1003.2 -1 63
2019-12-14 12:00:00 16.2 12 Sudoeste 28 Sudoeste 0 1004.4 0.5 63
2019-12-14 11:00:00 15.2 13 Sur 24 Sudoeste 0 1004.5 0.6 66
2019-12-14 10:00:00 14 12 Sudeste 22 Sur 0 1004.2 0.5 70
2019-12-14 09:00:00 13 11 Sur 19 Sudoeste 0 1003.9 0.7 74
2019-12-14 08:00:00 13.1 9 Sudoeste 21 Sudoeste 0 1003.9 0.8 72
2019-12-14 07:00:00 12.2 6 Sur 13 Sur 0 1003.7 0.7 82
2019-12-14 06:00:00 12.2 9 Sudeste 14 Sudeste 0 1003.2 0.2 83
2019-12-14 05:00:00 11.8 8 Sudeste 15 Sur 0 1003.1 0.4 88
2019-12-14 04:00:00 12.1 8 Sur 17 Sudeste 0 1003 0.3 90
2019-12-14 03:00:00 12.7 8 Sur 18 Noroeste 0 1003 0.1 88
2019-12-14 02:00:00 14.4 8 Oeste 24 Oeste 0 1002.7 0.1 75
2019-12-14 01:00:00 13.1 8 Sudoeste 21 Oeste 0 1002.7 0.2 88
2019-12-14 00:00:00 13.2 8 Noroeste 29 Noroeste 0 1002.9 0.3 88
2019-12-13 23:00:00 13.8 13 Oeste 53 Oeste 0 1002.6 0.1 84
2019-12-13 22:00:00 14.2 25 Noroeste 51 Oeste 0 1002.5 1 83
2019-12-13 21:00:00 14.4 24 Noroeste 43 Noroeste 0 1002.6 1.6 85
2019-12-13 20:00:00 14.3 21 Noroeste 48 Oeste 0 1002.5 2.1 87
2019-12-13 19:00:00 14.3 26 Noroeste 67 Noroeste 0 1001.5 1.6 89
2019-12-13 18:00:00 14.2 35 Noroeste 67 Noroeste 0 1001 1.4 92
2019-12-13 17:00:00 14.4 36 Noroeste 65 Noroeste 0 1000.4 1 92
2019-12-13 16:00:00 13.9 23 Noroeste 58 Noroeste 0.4 999.9 0.3 97
2019-12-13 15:00:00 14.6 32 Noroeste 60 Noroeste 0 999.6 -0.2 93
2019-12-13 14:00:00 15.5 24 Noroeste 70 Noroeste 0 999.4 0.6 89
2019-12-13 13:00:00 15.3 40 Noroeste 80 Noroeste 0 999.6 1.5 89
2019-12-13 12:00:00 15.3 50 Noroeste 86 Noroeste 0 999.8 3.4 89
2019-12-13 11:00:00 15.1 55 Noroeste 99 Noroeste 0 998.8 2.6 88
2019-12-13 10:00:00 15.1 53 Noroeste 92 Noroeste 0 998.1 2.8 90
2019-12-13 09:00:00 14.7 52 Noroeste 96 Oeste 0 996.4 2.6 90
2019-12-13 08:00:00 14.5 53 Noroeste 90 Noroeste 0 996.2 1.8 92
2019-12-13 07:00:00 15.1 57 Noroeste 98 Noroeste 0 995.3 0.9 87
2019-12-13 06:00:00 15.1 54 Noroeste 86 Noroeste 0 993.8 0 88
2019-12-13 05:00:00 14.7 39 Noroeste 79 Noroeste 0 994.4 -0.2 92
2019-12-13 04:00:00 15.1 46 Noroeste 76 Noroeste 0.1 994.4 -0.2 89
2019-12-13 03:00:00 14 35 Noroeste 87 Noroeste 0.4 993.8 -1.3 95
2019-12-13 02:00:00 14.6 44 Noroeste 81 Noroeste 0.1 994.6 0.1 91
2019-12-13 01:00:00 14.4 32 Noroeste 82 Noroeste 0.1 994.6 -0.1 92
2019-12-13 00:00:00 13.7 43 Noroeste 78 Noroeste 0.6 995.1 0.2 96
2019-12-12 23:00:00 14 39 Noroeste 71 Oeste 0.8 994.5 -0.5 95
2019-12-12 22:00:00 13.5 42 Noroeste 72 Noroeste 1.9 994.7 -0.7 97
2019-12-12 21:00:00 13.4 37 Noroeste 76 Oeste 1.4 994.9 -0.1 98
2019-12-12 20:00:00 13.6 39 Noroeste 72 Noroeste 0.5 995 0.3 96
2019-12-12 19:00:00 13.3 28 Noroeste 60 Noroeste 1.6 995.4 0.2 96
2019-12-12 18:00:00 13.1 24 Noroeste 58 Oeste 1.8 995 -0.5 96
2019-12-12 17:00:00 12.8 24 Oeste 51 Oeste 2.3 994.7 -2.2 95
2019-12-12 16:00:00 10.5 10 Sudoeste 30 Oeste 2.3 995.2 -3.8 95
2019-12-12 15:00:00 10.4 15 Sudoeste 45 Sudoeste 2.4 995.5 -5.5 92
2019-12-12 14:00:00 10.1 12 Sudoeste 34 Sur 1.7 996.9 -5.8 92
2019-12-12 13:00:00 10.1 10 Sudoeste 33 Sur 1 999 -5.2 90
2019-12-12 12:00:00 10.3 12 Sudoeste 28 Sudoeste 0.1 1001 -3.6 89
2019-12-12 11:00:00 9.4 9 Sur 26 Sur 0.5 1002.7 -2.4 92
2019-12-12 10:00:00 9.8 11 Sudoeste 28 Sudoeste 0.3 1004.2 -1.5 88
2019-12-12 09:00:00 9.9 10 Sudoeste 22 Sudoeste 0 1004.6 -2.3 86
2019-12-12 08:00:00 9.8 9 Sudoeste 25 Sudoeste 0.1 1005.1 -2.8 86
2019-12-12 07:00:00 8.9 8 Sudoeste 15 Sudoeste 0.1 1005.7 -3.1 95
2019-12-12 06:00:00 8.5 6 Sudoeste 14 Sudoeste 1.6 1006.9 -2.4 96
2019-12-12 05:00:00 9.1 4 Sudoeste 27 Oeste 0.9 1007.9 -1.9 95
2019-12-12 04:00:00 9.6 15 Oeste 34 Oeste 1.2 1008.8 -1.2 95
2019-12-12 03:00:00 9.6 15 Noroeste 40 Noroeste 2.2 1009.3 -1.5 95
2019-12-12 02:00:00 10.4 20 Oeste 48 Noroeste 0.1 1009.8 -0.6 91
2019-12-12 01:00:00 10.3 19 Oeste 35 Oeste 0.4 1010 -1.4 93
2019-12-12 00:00:00 9.7 13 Noroeste 48 Oeste 3.5 1010.8 -0.5 96
2019-12-11 23:00:00 10.5 24 Oeste 49 Oeste 0.2 1010.4 -1.1 85
2019-12-11 22:00:00 9.9 22 Noroeste 48 Noroeste 2.8 1011.4 0.1 93
2019-12-11 21:00:00 10.2 18 Oeste 68 Oeste 1.6 1011.3 0.6 92
2019-12-11 20:00:00 10.7 27 Oeste 54 Oeste 0.2 1011.5 0.8 84
2019-12-11 19:00:00 10.4 30 Noroeste 75 Noroeste 0.7 1011.3 0.1 92
2019-12-11 18:00:00 12 15 Oeste 36 Oeste 0 1010.7 -1 61
2019-12-11 17:00:00 11.8 12 Oeste 38 Oeste 0 1010.7 -1.6 57
2019-12-11 16:00:00 11.7 15 Oeste 39 Oeste 0 1011.2 -1.7 56
2019-12-11 15:00:00 11.5 18 Oeste 40 Oeste 0 1011.7 -1.5 67
2019-12-11 14:00:00 11.2 18 Noroeste 44 Oeste 0 1012.3 -0.8 77
2019-12-11 13:00:00 10.5 13 Oeste 45 Oeste 0 1012.9 0.3 86
2019-12-11 12:00:00 9.2 19 Oeste 42 Oeste 0.7 1013.2 1.2 93
2019-12-11 11:00:00 9.7 20 Oeste 41 Oeste 0 1013.1 1.8 89
2019-12-11 10:00:00 9.4 15 Noroeste 44 Noroeste 0.9 1012.6 2.3 95
2019-12-11 09:00:00 9.8 29 Noroeste 62 Oeste 2.8 1012 2.8 96
2019-12-11 08:00:00 10.3 21 Noroeste 45 Noroeste 2.6 1011.3 2.4 97
2019-12-11 07:00:00 10.8 21 Noroeste 49 Noroeste 1.2 1010.3 2.5 96
2019-12-11 06:00:00 12.7 13 Noroeste 36 Oeste 0 1009.2 1.1 93
2019-12-11 05:00:00 12 2 Noroeste 18 Noroeste 0 1008.9 -0.2 59
2019-12-11 04:00:00 11.6 10 Sur 17 Sudeste 0 1007.8 -2 60
2019-12-11 03:00:00 11.4 9 Sur 23 Sur 0 1008.1 -2.5 60
2019-12-11 02:00:00 12.1 11 Sudeste 20 Sudeste 0 1009.1 -1.6 59
2019-12-11 01:00:00 11.6 9 Sudeste 19 Sudeste 0 1009.8 -1.4 61
2019-12-11 00:00:00 12 9 Sudeste 19 Sur 0 1010.6 -1 61
2019-12-10 23:00:00 11.7 5 Sur 16 Sudeste 0 1010.7 -1.5 64
2019-12-10 22:00:00 12.6 9 Sur 19 Sudeste 0 1011.2 -1.3 63
2019-12-10 21:00:00 12.9 10 Sudeste 19 Sudeste 0 1011.6 -0.9 63
2019-12-10 20:00:00 12.7 10 Sudeste 18 Sur 0 1012.2 -0.7 65
2019-12-10 19:00:00 12.6 9 Sur 16 Sur 0 1012.5 -0.9 65
2019-12-10 18:00:00 13 8 Sur 17 Sudeste 0 1012.5 -1.6 65
2019-12-10 17:00:00 13.9 9 Sur 19 Sudeste 0 1012.9 -2.1 61
2019-12-10 16:00:00 14.9 10 Sudeste 17 Sudeste 0 1013.4 -2.6 57
2019-12-10 15:00:00 14.9 7 Sur 16 Sur 0 1014.1 -3.4 60
2019-12-10 14:00:00 14.4 8 Sur 21 Sudeste 0 1015 -3.1 60
2019-12-10 13:00:00 13.8 10 Sur 23 Sudeste 0 1016 -2.5 67
2019-12-10 12:00:00 12 12 Sudeste 25 Sudeste 0 1017.5 -1.1 74
2019-12-10 11:00:00 10.3 10 Sur 21 Sur 0 1018.1 -0.9 85
2019-12-10 10:00:00 8.3 9 Sur 21 Sudeste 0 1018.5 -1.1 95
2019-12-10 09:00:00 7.2 8 Sur 18 Sudeste 0 1018.6 -1.3 97
2019-12-10 08:00:00 7 7 Sur 15 Sur 0 1019 -1.9 97
2019-12-10 07:00:00 7.3 8 Sur 15 Sudeste 0 1019.6 -1.6 96
2019-12-10 06:00:00 7.5 7 Sur 14 Sur 0 1019.9 -1.8 96
2019-12-10 05:00:00 8 7 Sur 13 Sur 0 1020.9 -1.3 96
2019-12-10 04:00:00 9.1 7 Sur 11 Sur 0 1021.2 -1.1 94
2019-12-10 03:00:00 9.8 6 Sur 10 Sudeste 0 1021.7 -0.7 92
2019-12-10 02:00:00 10.9 4 Oeste 10 Oeste 0 1022.2 -0.3 91
2019-12-10 01:00:00 11.1 4 Oeste 13 Noroeste 0 1022.3 -0.4 89
2019-12-10 00:00:00 11.2 2 Oeste 13 Oeste 0 1022.4 0.1 89
2019-12-09 23:00:00 11.7 9 Oeste 23 Noroeste 0 1022.5 0.5 82
2019-12-09 22:00:00 12.1 12 Noroeste 27 Noroeste 0 1022.7 1.1 83
2019-12-09 21:00:00 12.3 13 Noroeste 32 Noroeste 0 1022.3 1.2 73
2019-12-09 20:00:00 12.3 18 Noroeste 38 Noroeste 0 1022 1.4 81
2019-12-09 19:00:00 12.4 20 Noroeste 41 Noroeste 0 1021.6 1.2 76
2019-12-09 18:00:00 12.3 21 Noroeste 46 Noroeste 0 1021.1 1.4 81
2019-12-09 17:00:00 12.4 25 Noroeste 48 Noroeste 0 1020.6 1.1 76
2019-12-09 16:00:00 12.5 20 Noroeste 50 Noroeste 0 1020.4 1 76
2019-12-09 15:00:00 12.5 25 Noroeste 51 Noroeste 0 1019.7 0.2 82
2019-12-09 14:00:00 12.3 24 Noroeste 51 Noroeste 0 1019.5 0.6 87
2019-12-09 13:00:00 11.6 30 Noroeste 50 Noroeste 0 1019.4 1.3 95
2019-12-09 12:00:00 11.8 30 Noroeste 58 Noroeste 0.3 1019.5 2 92
2019-12-09 11:00:00 11 25 Noroeste 65 Noroeste 0.6 1018.9 2 97
2019-12-09 10:00:00 11.1 30 Noroeste 57 Noroeste 1.7 1018.1 2.1 93
2019-12-09 09:00:00 10.6 29 Noroeste 61 Noroeste 1.7 1017.5 1.4 97
2019-12-09 08:00:00 11.9 36 Noroeste 62 Noroeste 0 1016.9 0.6 85
2019-12-09 07:00:00 12.2 35 Noroeste 56 Noroeste 0.2 1016 -0.2 89
2019-12-09 06:00:00 12.4 23 Noroeste 49 Noroeste 0 1016.1 0.1 82
2019-12-09 05:00:00 12.2 28 Noroeste 56 Noroeste 0 1016.3 0.8 82
2019-12-09 04:00:00 12 29 Noroeste 49 Oeste 0 1016.2 0.5 86
2019-12-09 03:00:00 12.3 12 Oeste 29 Oeste 0 1016 0.3 86
2019-12-09 02:00:00 12.3 15 Oeste 36 Oeste 0 1015.5 0.1 84
2019-12-09 01:00:00 12.1 17 Noroeste 41 Oeste 0 1015.7 0.1 85
2019-12-09 00:00:00 12.3 16 Oeste 35 Noroeste 0 1015.7 0.7 84
2019-12-08 23:00:00 12.3 13 Oeste 34 Oeste 0 1015.4 0 87
2019-12-08 22:00:00 12.8 22 Noroeste 37 Noroeste 0 1015.6 0.5 88
2019-12-08 21:00:00 12.2 12 Oeste 33 Oeste 0 1015 0.8 88
2019-12-08 20:00:00 12.3 17 Noroeste 38 Noroeste 0 1015.4 1.9 90
2019-12-08 19:00:00 12.4 21 Noroeste 35 Oeste 0 1015.1 3 89
2019-12-08 18:00:00 12.7 20 Noroeste 40 Noroeste 0 1014.2 2.7 91
2019-12-08 17:00:00 12.5 25 Noroeste 42 Noroeste 0 1013.5 2.1 98
2019-12-08 16:00:00 13.5 28 Noroeste 42 Noroeste 0.3 1012.1 0.3 97
2019-12-08 15:00:00 12 6 Sur 14 Sur 2.5 1011.5 -0.7 97
2019-12-08 14:00:00 12.1 6 Sur 13 Sur 0.8 1011.4 0.1 96
2019-12-08 13:00:00 12.1 6 Sur 13 Sudeste 0.3 1011.8 0.7 95
2019-12-08 12:00:00 12.1 8 Sudeste 19 Sur 0.4 1012.2 1.3 92
2019-12-08 11:00:00 12.2 11 Sur 20 Sur 0.1 1011.3 0.3 89
2019-12-08 10:00:00 12.1 12 Sur 22 Sudeste 0 1011.1 0.2 82
2019-12-08 09:00:00 11.5 10 Sur 39 Sur 0 1010.9 0.3 83
2019-12-08 08:00:00 11 12 Sur 23 Sudeste 0 1011 0.1 84
2019-12-08 07:00:00 10.6 12 Sur 22 Sur 0 1010.9 -0.6 85
2019-12-08 06:00:00 9.9 13 Sudeste 23 Sudeste 0 1010.6 -1.3 88
2019-12-08 05:00:00 9.8 11 Sur 22 Sudeste 0 1010.9 -1.6 88
2019-12-08 04:00:00 9.8 12 Sur 19 Sur 0 1011.5 -1.6 90
2019-12-08 03:00:00 9.7 10 Sur 19 Sur 0 1011.9 -1.5 92
2019-12-08 02:00:00 10.3 9 Sur 15 Sur 0 1012.5 -0.8 92
2019-12-08 01:00:00 10.5 10 Sur 14 Sudeste 0 1013.1 -0.4 92
2019-12-08 00:00:00 10.8 8 Sur 15 Sur 0 1013.4 0.1 92
2019-12-07 23:00:00 11 9 Sur 13 Sudeste 0 1013.3 -0.4 93
2019-12-07 22:00:00 11 8 Sur 12 Sur 0 1013.5 -0.1 92
2019-12-07 21:00:00 11.4 7 Sur 12 Sudeste 0 1013.3 0 93
2019-12-07 20:00:00 12 7 Sur 10 Sur 0 1013.7 0.9 89
2019-12-07 19:00:00 12.8 4 Sudeste 7 Sur 0 1013.6 1 83
2019-12-07 18:00:00 13.1 2 Nordeste 4 Norte 0 1013.3 0.7 86
2019-12-07 17:00:00 13.7 0 Calma 3 Este 0 1012.8 -0.2 86
2019-12-07 16:00:00 13.9 3 Norte 6 Norte 0 1012.6 -1 86
2019-12-07 15:00:00 14.5 0 Calma 6 Sudeste 0 1012.6 -1.5 80
2019-12-07 14:00:00 14 4 Sudeste 12 Sur 0 1013 -1.7 78
2019-12-07 13:00:00 13.1 6 Sur 13 Sudeste 0 1013.6 -0.9 83
2019-12-07 12:00:00 11.3 8 Sudeste 15 Sur 0 1014.1 0 90
2019-12-07 11:00:00 9.3 9 Sur 14 Sur 0 1014.7 0.9 93
2019-12-07 10:00:00 8.4 9 Sur 15 Sur 0 1014.5 1.3 95
2019-12-07 09:00:00 7.2 10 Sur 16 Sur 0 1014.1 1.2 96
2019-12-07 08:00:00 6.7 10 Sur 17 Sur 0 1013.8 0.9 96
2019-12-07 07:00:00 6.8 10 Sur 16 Sur 0 1013.2 0.4 96
2019-12-07 06:00:00 7.1 10 Sur 15 Sur 0 1012.9 0 95
2019-12-07 05:00:00 8 10 Sur 29 Sur 0 1012.9 -0.5 95
2019-12-07 04:00:00 7.9 9 Sur 14 Sur 0 1012.8 -1.2 95
2019-12-07 03:00:00 8.1 9 Sur 14 Sur 0 1012.9 -1.5 95
2019-12-07 02:00:00 8.4 8 Sur 12 Sudeste 0 1013.4 -0.4 95
2019-12-07 01:00:00 8.7 9 Sur 13 Sur 0 1014 0.3 95
2019-12-07 00:00:00 9.3 8 Sur 11 Sur 0 1014.4 1.4 94
2019-12-06 23:00:00 9.6 6 Sur 9 Sudeste 0 1013.8 1.3 94
2019-12-06 22:00:00 9.5 6 Sur 12 Sur 0 1013.7 1.4 94
2019-12-06 21:00:00 9.5 5 Sur 9 Sudeste 0 1013 1.1 94
2019-12-06 20:00:00 9.8 6 Sur 10 Sur 0 1012.5 1 94
2019-12-06 19:00:00 11 3 Noroeste 11 Noroeste 0 1012.3 1 92
2019-12-06 18:00:00 10.9 5 Noroeste 12 Noroeste 0 1011.9 0.7 91
2019-12-06 17:00:00 11.1 8 Noroeste 14 Noroeste 0 1011.5 -0.6 89
2019-12-06 16:00:00 11.2 4 Noroeste 9 Noroeste 0 1011.3 -1.3 88
2019-12-06 15:00:00 11.8 3 Noroeste 9 Norte 0 1011.2 -1.6 86
2019-12-06 14:00:00 12.1 4 Norte 9 Noroeste 0 1012.1 -1.5 86
2019-12-06 13:00:00 11.5 4 Noroeste 10 Sur 0 1012.6 -0.4 83
2019-12-06 12:00:00 11.1 5 Sudeste 11 Sur 0 1012.8 0.3 85
2019-12-06 11:00:00 9.3 5 Sur 14 Sudeste 0 1013.6 0.7 93
2019-12-06 10:00:00 7.5 9 Sur 18 Sur 0 1013 0.1 97
2019-12-06 09:00:00 6 9 Sur 18 Sur 0 1012.5 -0.6 98
2019-12-06 08:00:00 5.6 9 Sur 17 Sudeste 0 1012.9 -0.7 98
2019-12-06 07:00:00 6.2 9 Sudeste 18 Sudeste 0 1012.9 -0.9 98
2019-12-06 06:00:00 5.8 6 Sur 13 Sudeste 0 1013.1 -0.6 98
2019-12-06 05:00:00 6.4 8 Sur 12 Sur 0 1013.6 -0.5 98
2019-12-06 04:00:00 6.8 8 Sur 12 Sur 0 1013.8 -0.4 98
2019-12-06 03:00:00 7.2 7 Sur 12 Sur 0 1013.7 -1.1 98
2019-12-06 02:00:00 7.5 8 Sur 12 Sur 0 1014.1 -0.6 97
2019-12-06 01:00:00 8 8 Sur 13 Sur 0 1014.2 -0.6 97
2019-12-06 00:00:00 9.1 5 Sur 8 Sur 0 1014.8 -0.4 96
2019-12-05 23:00:00 8.9 6 Sur 10 Sur 0 1014.7 -0.5 96
2019-12-05 22:00:00 9.1 4 Sur 8 Sur 0 1014.8 0.1 95
2019-12-05 21:00:00 9.7 6 Este 14 Nordeste 0 1015.2 1 93
2019-12-05 20:00:00 10.9 6 Nordeste 19 Nordeste 0 1015.2 1.3 93
2019-12-05 19:00:00 11.5 11 Nordeste 21 Nordeste 0 1014.7 1.1 93
2019-12-05 18:00:00 11.8 12 Nordeste 20 Norte 0 1014.2 0.7 93
2019-12-05 17:00:00 11.6 11 Nordeste 19 Nordeste 0 1013.9 0.3 93
2019-12-05 16:00:00 12.2 10 Nordeste 17 Nordeste 0 1013.6 -0.3 92
2019-12-05 15:00:00 12.4 9 Nordeste 19 Norte 0 1013.5 -0.7 92
2019-12-05 14:00:00 12.3 11 Nordeste 23 Norte 0 1013.6 -0.4 94
2019-12-05 13:00:00 11.6 4 Oeste 16 Oeste 0 1013.9 0.5 95
2019-12-05 12:00:00 10.5 3 Sudeste 9 Oeste 0 1014.2 1.2 95
2019-12-05 11:00:00 10.7 5 Oeste 11 Oeste 0 1014 1.9 94
2019-12-05 10:00:00 10.1 4 Oeste 13 Oeste 0 1013.4 1.5 95
2019-12-05 09:00:00 9.7 6 Noroeste 13 Noroeste 0 1013 1.9 95
2019-12-05 08:00:00 9.2 0 Calma 8 Oeste 0 1012.1 1.2 95
2019-12-05 07:00:00 9.1 2 Oeste 8 Oeste 0 1011.9 1.5 95
2019-12-05 06:00:00 8.5 2 Sudoeste 4 Sudoeste 0 1011.1 1.1 93
2019-12-05 05:00:00 9.2 0 Calma 19 Nordeste 0 1010.9 1.5 92
2019-12-05 04:00:00 9.1 12 Nordeste 19 Nordeste 0 1010.4 1.3 92
2019-12-05 03:00:00 8.9 10 Nordeste 26 Nordeste 0 1010 1.9 93
2019-12-05 02:00:00 10.2 14 Nordeste 25 Nordeste 0 1009.4 1.8 89
2019-12-05 01:00:00 10 14 Nordeste 31 Nordeste 0 1009.1 1.6 88
2019-12-05 00:00:00 10.6 15 Norte 44 Noroeste 0.1 1008.1 1.1 94
2019-12-04 23:00:00 10.6 16 Noroeste 28 Noroeste 0 1007.6 0.7 92
2019-12-04 22:00:00 10.4 8 Noroeste 16 Noroeste 0 1007.5 1.3 87
2019-12-04 21:00:00 9.4 3 Norte 23 Nordeste 0 1007 1.1 92
2019-12-04 20:00:00 9.9 17 Nordeste 33 Nordeste 0.1 1006.9 1.6 95
2019-12-04 19:00:00 11 13 Noroeste 26 Noroeste 0 1006.2 1 87
2019-12-04 18:00:00 10.6 14 Noroeste 24 Noroeste 0 1005.9 1 90
2019-12-04 17:00:00 10.6 9 Noroeste 28 Oeste 0 1005.3 0.8 90
2019-12-04 16:00:00 10.8 14 Noroeste 23 Noroeste 0 1005.2 0.3 88
2019-12-04 15:00:00 10.5 12 Noroeste 20 Noroeste 0 1004.9 -0.5 87
2019-12-04 14:00:00 10.3 9 Noroeste 17 Oeste 0 1004.5 -0.7 86
2019-12-04 13:00:00 9.6 10 Noroeste 16 Noroeste 0 1004.9 0.1 85
2019-12-04 12:00:00 8.4 5 Noroeste 10 Sudeste 0 1005.4 1.3 83
2019-12-04 11:00:00 7 8 Sudeste 16 Sur 0 1005.2 1.4 88
2019-12-04 10:00:00 4.9 8 Sur 18 Sur 0 1004.8 1.6 94
2019-12-04 09:00:00 3.9 10 Sur 18 Sur 0 1004.1 0.6 94
2019-12-04 08:00:00 3.6 10 Sur 17 Sudeste 0 1003.8 -0.5 94
2019-12-04 07:00:00 3.7 10 Sur 14 Sur 0 1003.2 -1.3 94
2019-12-04 06:00:00 3.5 7 Sur 16 Sur 0 1003.5 -1.7 96
2019-12-04 05:00:00 2.7 10 Sur 15 Sudeste 0 1004.3 -1.4 96
2019-12-04 04:00:00 2.5 10 Sur 16 Sur 0 1004.5 -2.1 96
2019-12-04 03:00:00 2.6 6 Sur 10 Sudoeste 0 1005.2 -2.2 96
2019-12-04 02:00:00 2.7 5 Sur 13 Sudeste 0 1005.7 -2.2 96
2019-12-04 01:00:00 3 8 Sur 14 Sur 0 1006.6 -1.3 96
2019-12-04 00:00:00 3.3 9 Sudeste 13 Sudeste 0 1007.4 -0.9 96
2019-12-03 23:00:00 3.5 6 Sur 12 Sur 0 1007.9 -0.7 96
2019-12-03 22:00:00 4 6 Sur 12 Sur 0 1007.9 -0.6 96
2019-12-03 21:00:00 4.6 6 Sur 15 Sur 0 1008.3 -0.4 95
2019-12-03 20:00:00 4.9 5 Sudeste 12 Sudeste 0 1008.6 0 94
2019-12-03 19:00:00 5.7 4 Sudeste 6 Sudeste 0 1008.5 -0.5 92
2019-12-03 18:00:00 6.4 4 Sudeste 8 Este 0 1008.7 -0.6 91
2019-12-03 17:00:00 7.4 3 Este 10 Nordeste 0 1008.6 -1.5 86
2019-12-03 16:00:00 8.2 4 Nordeste 10 Nordeste 0 1009 -1.8 82
2019-12-03 15:00:00 8.6 5 Nordeste 15 Este 0 1009.3 -2.8 83
2019-12-03 14:00:00 7.7 9 Nordeste 18 Nordeste 0 1010.1 -2.5 84
2019-12-03 13:00:00 8.9 10 Nordeste 19 Nordeste 0 1010.8 -1.8 80
2019-12-03 12:00:00 8.5 6 Nordeste 18 Nordeste 0 1012.1 -0.7 82
2019-12-03 11:00:00 8.2 7 Nordeste 12 Nordeste 0 1012.6 -0.1 82
2019-12-03 10:00:00 7.3 0 Calma 5 Sur 0 1012.6 -0.3 90
2019-12-03 09:00:00 6.6 3 Sudeste 11 Este 0 1012.8 -0.3 90
2019-12-03 08:00:00 6.9 6 Este 18 Nordeste 0 1012.7 -0.9 89
2019-12-03 07:00:00 7.8 12 Nordeste 24 Nordeste 0 1012.9 -0.7 85
2019-12-03 06:00:00 8 13 Nordeste 27 Nordeste 0 1013.1 -1 84
2019-12-03 05:00:00 8 14 Nordeste 26 Nordeste 0 1013.6 -0.7 87
2019-12-03 04:00:00 7.9 13 Nordeste 22 Nordeste 0 1013.6 -1.3 88
2019-12-03 03:00:00 7.7 8 Nordeste 19 Nordeste 0.1 1014.1 -0.9 89
2019-12-03 02:00:00 7.9 13 Nordeste 28 Nordeste 0 1014.3 -0.7 82
2019-12-03 01:00:00 8 15 Nordeste 30 Norte 0 1014.9 -0.4 83
2019-12-03 00:00:00 8.1 15 Nordeste 32 Nordeste 0 1015 -0.5 86
2019-12-02 23:00:00 8.4 14 Nordeste 30 Nordeste 0 1015 -0.5 82
2019-12-02 22:00:00 8.4 16 Nordeste 28 Nordeste 0 1015.3 0 85
2019-12-02 21:00:00 8.7 14 Nordeste 26 Nordeste 0 1015.5 0.7 84
2019-12-02 20:00:00 8.5 13 Nordeste 33 Nordeste 0 1015.5 0.8 83
2019-12-02 19:00:00 8.4 13 Nordeste 24 Nordeste 0 1015.3 1 86
2019-12-02 18:00:00 8.5 10 Nordeste 30 Nordeste 0 1014.8 0.9 85
2019-12-02 17:00:00 8.8 13 Nordeste 31 Nordeste 0 1014.7 0.9 82
2019-12-02 16:00:00 8.6 13 Nordeste 28 Nordeste 0 1014.3 0.7 84
2019-12-02 15:00:00 8.8 15 Nordeste 33 Nordeste 0 1013.9 0.1 86
2019-12-02 14:00:00 9 18 Nordeste 37 Nordeste 0 1013.8 0.4 89
2019-12-02 13:00:00 9.5 18 Nordeste 34 Este 0 1013.6 1 90
2019-12-02 12:00:00 10.3 21 Nordeste 37 Nordeste 0 1013.8 1.8 91
2019-12-02 11:00:00 10.1 22 Nordeste 40 Nordeste 0 1013.4 2.3 92
2019-12-02 10:00:00 10.2 22 Nordeste 40 Nordeste 0 1012.6 2.3 92
2019-12-02 09:00:00 9.8 8 Este 18 Nordeste 1.2 1012 2.3 95
2019-12-02 08:00:00 9.8 9 Este 21 Nordeste 0 1011.1 1.8 95
2019-12-02 07:00:00 9.8 9 Este 20 Este 0 1010.3 0.7 96
2019-12-02 06:00:00 9.1 0 Calma 7 Sudeste 0.1 1009.7 0.5 97
2019-12-02 05:00:00 9 5 Sur 25 Este 2.3 1009.3 0.9 97
2019-12-02 04:00:00 9 18 Nordeste 35 Este 0.2 1009.6 1.2 97
2019-12-02 03:00:00 9.1 0 Calma 16 Noroeste 2.6 1009.2 1.2 97
2019-12-02 02:00:00 9.1 6 Oeste 12 Oeste 0.1 1008.4 0.7 97
2019-12-02 01:00:00 8.5 5 Sudeste 7 Sur 0 1008.4 1 97
2019-12-02 00:00:00 8.9 4 Sur 9 Sudeste 0.2 1008 1.4 97
2019-12-01 23:00:00 8.8 4 Sudoeste 12 Sudoeste 0.8 1007.7 1.9 97
2019-12-01 22:00:00 9 3 Sudoeste 5 Nordeste 5.5 1007.4 2.2 96
2019-12-01 21:00:00 9.3 0 Calma 12 Sudeste 2.2 1006.6 2.6 96
2019-12-01 20:00:00 9.5 6 Sur 12 Noroeste 4.7 1005.8 2.2 96
2019-12-01 19:00:00 10.4 8 Norte 33 Noroeste 3 1005.2 1.9 95
2019-12-01 18:00:00 11.3 0 Calma 10 Norte 0 1004 1 88
2019-12-01 17:00:00 12.4 5 Nordeste 17 Nordeste 0 1003.6 0.6 85
2019-12-01 16:00:00 13.2 5 Norte 15 Norte 0 1003.3 0.5 84
2019-12-01 15:00:00 12.9 7 Noroeste 14 Noroeste 0 1003 0.2 83
2019-12-01 14:00:00 13.6 9 Noroeste 13 Oeste 0 1003 0.6 80
2019-12-01 13:00:00 13.7 4 Noroeste 10 Noroeste 0 1002.8 0.9 76
2019-12-01 12:00:00 14 0 Calma 12 Sudeste 0 1002.8 1.6 76
2019-12-01 11:00:00 11.5 7 Sudeste 14 Sudeste 0 1002.4 1.6 86
2019-12-01 10:00:00 9.9 8 Sur 14 Sur 0 1001.9 1.9 88
2019-12-01 09:00:00 11.1 9 Sur 27 Sudoeste 0 1001.2 1.3 82
2019-12-01 08:00:00 10.1 11 Sudoeste 22 Sur 0 1000.8 0.9 86
2019-12-01 07:00:00 8.5 10 Sur 22 Sur 0 1000 -0.6 92
2019-12-01 06:00:00 8.3 10 Sur 23 Sur 0 999.9 -0.9 93
2019-12-01 05:00:00 8 11 Sur 22 Sudeste 0 999.9 -1.2 94
2019-12-01 04:00:00 7.5 10 Sur 22 Sur 0 1000.6 -1.5 96
2019-12-01 03:00:00 7.5 10 Sur 19 Sur 0 1000.8 -1.7 97
2019-12-01 02:00:00 7.6 10 Sudeste 22 Sudeste 0 1001.1 -1.9 97
2019-12-01 01:00:00 7.4 10 Sur 19 Sudeste 0.1 1002.1 -1.6 97
2019-12-01 00:00:00 7.7 11 Sudeste 21 Sudeste 0 1002.5 -1.2 97
2019-11-30 23:00:00 8.1 10 Sur 18 Sudeste 0 1003 -0.9 97
2019-11-30 22:00:00 8.6 8 Sur 14 Sur 0 1003.7 -0.4 97
2019-11-30 21:00:00 9.2 7 Sudeste 14 Sudeste 0 1003.7 -0.2 97
2019-11-30 20:00:00 9.5 9 Sudeste 13 Sur 0 1003.9 0.3 97
2019-11-30 19:00:00 9.8 8 Sur 14 Sur 0 1004.1 0.3 97
2019-11-30 18:00:00 10.6 8 Sur 18 Sur 0 1003.9 -0.6 97
2019-11-30 17:00:00 10.8 7 Sur 17 Sur 0.2 1003.6 -0.6 97
2019-11-30 16:00:00 11.2 6 Sur 14 Sudeste 1.3 1003.8 -0.9 97
2019-11-30 15:00:00 11.5 5 Sur 12 Sudoeste 2.5 1004.5 -1.2 97
2019-11-30 14:00:00 11.3 6 Sudeste 13 Sudeste 3.8 1004.2 -1.3 97
2019-11-30 13:00:00 11.6 4 Sur 19 Noroeste 2.5 1004.7 0.7 96
2019-11-30 12:00:00 11.7 11 Oeste 32 Noroeste 1.4 1005.7 4.1 96
2019-11-30 11:00:00 11.9 13 Noroeste 60 Noroeste 0.9 1005.5 4.2 96
2019-11-30 10:00:00 13.6 30 Noroeste 49 Noroeste 1.1 1004 2.2 96
2019-11-30 09:00:00 18.4 18 Sudoeste 52 Sudoeste 0 1001.6 -1 67
2019-11-30 08:00:00 17.7 13 Sudoeste 37 Sur 0 1001.3 -1.7 73
2019-11-30 07:00:00 17.1 12 Sur 38 Sur 0 1001.8 -2.6 78
2019-11-30 06:00:00 16.7 13 Sur 34 Sur 0 1002.6 -2.2 81
2019-11-30 05:00:00 16 12 Sur 27 Sur 0 1003 -2.6 79
2019-11-30 04:00:00 15 5 Sur 27 Sur 0 1004.4 -2.7 82
2019-11-30 03:00:00 12.2 8 Sudeste 21 Sur 0 1004.8 -2.8 88
2019-11-30 02:00:00 11.8 14 Sudeste 25 Sudeste 0 1005.6 -3.2 89
2019-11-30 01:00:00 10.4 10 Sur 20 Sur 0 1007.1 -2.1 95
2019-11-30 00:00:00 10.3 10 Sur 20 Sudeste 0 1007.6 -2.1 95
2019-11-29 23:00:00 10.6 9 Sur 21 Sudeste 0 1008.8 -1.2 95
2019-11-29 22:00:00 10.3 7 Sur 12 Sur 0 1009.2 -0.6 95
2019-11-29 21:00:00 10.7 7 Sur 12 Sur 0 1009.7 -0.1 94
2019-11-29 20:00:00 11.4 6 Sur 9 Sur 0 1010 0.4 93
2019-11-29 19:00:00 12.1 2 Sudeste 9 Este 0 1009.8 0.3 90
2019-11-29 18:00:00 12.8 5 Este 13 Este 0 1009.8 0.3 88
2019-11-29 17:00:00 14 6 Nordeste 13 Nordeste 0 1009.6 -0.4 87
2019-11-29 16:00:00 15.5 6 Nordeste 9 Nordeste 0 1009.5 -1 81
2019-11-29 15:00:00 16.1 4 Norte 7 Norte 0 1009.5 -1.5 71
2019-11-29 14:00:00 15.8 4 Oeste 10 Sudoeste 0 1010 -0.7 71
2019-11-29 13:00:00 15.8 4 Oeste 10 Oeste 0 1010.5 0.4 78
2019-11-29 12:00:00 15.1 3 Oeste 8 Sudeste 0 1011 1.5 89
2019-11-29 11:00:00 14.3 4 Sudeste 11 Sudeste 0 1010.7 1.8 94
2019-11-29 10:00:00 12 6 Sudeste 10 Sur 0 1010.1 2.4 95
2019-11-29 09:00:00 13.2 4 Oeste 13 Noroeste 0 1009.5 2.1 93
2019-11-29 08:00:00 13.1 8 Noroeste 23 Noroeste 0 1008.9 2.2 94
2019-11-29 07:00:00 13 14 Noroeste 25 Noroeste 0.1 1007.7 1.8 95
2019-11-29 06:00:00 12.4 7 Noroeste 16 Oeste 0 1007.4 2.2 97
2019-11-29 05:00:00 11.9 0 Calma 8 Sudoeste 0 1006.7 1.9 97
2019-11-29 04:00:00 12 2 Sudoeste 13 Oeste 0 1005.9 1.7 97
2019-11-29 03:00:00 11.9 4 Sur 7 Sudeste 0 1005.2 1.7 97
2019-11-29 02:00:00 12.3 2 Noroeste 12 Oeste 0.1 1004.8 2.3 97
2019-11-29 01:00:00 12.1 2 Oeste 10 Oeste 0.4 1004.2 3.1 97
2019-11-29 00:00:00 12.1 6 Oeste 12 Oeste 0.1 1003.5 2.7 97
2019-11-28 23:00:00 11.6 0 Calma 6 Sudoeste 0.2 1002.5 1.4 97
2019-11-28 22:00:00 11.3 5 Sudeste 17 Sudeste 0 1001.1 -0.5 97
2019-11-28 21:00:00 10.8 7 Sur 17 Sudeste 0 1000.8 -0.5 97
2019-11-28 20:00:00 10.9 9 Sudeste 15 Sudeste 0.1 1001.1 -1.1 97
2019-11-28 19:00:00 11.2 7 Sudeste 15 Sur 0 1001.6 0.3 97
2019-11-28 18:00:00 11.2 6 Sur 10 Sur 1.4 1001.3 -0.2 96
2019-11-28 17:00:00 11.7 5 Oeste 14 Noroeste 1.8 1002.2 0.9 94
2019-11-28 16:00:00 12.6 0 Calma 8 Sudeste 0 1001.3 -0.9 95
2019-11-28 15:00:00 12.7 5 Sur 13 Sudeste 0 1001.5 -1.5 95
2019-11-28 14:00:00 12.9 5 Sur 10 Sur 0 1001.3 -1.6 94
2019-11-28 13:00:00 12.9 5 Sur 10 Oeste 0 1002.2 -0.4 94
2019-11-28 12:00:00 12.7 4 Sudoeste 13 Sudoeste 0 1003 0.8 94
2019-11-28 11:00:00 12.9 5 Oeste 26 Oeste 0 1002.9 1.4 94
2019-11-28 10:00:00 12.3 13 Oeste 27 Noroeste 0 1002.6 1.7 95
2019-11-28 09:00:00 12 12 Noroeste 30 Oeste 0 1002.2 2.2 95
2019-11-28 08:00:00 11.6 9 Oeste 18 Oeste 0.3 1001.5 1.6 96
2019-11-28 07:00:00 11 2 Oeste 10 Sur 1.8 1000.9 1.1 95
2019-11-28 06:00:00 10.7 5 Sur 9 Sur 0.9 1000 1.4 95
2019-11-28 05:00:00 11.5 6 Oeste 13 Oeste 0.9 999.9 1.3 95
2019-11-28 04:00:00 10.5 3 Oeste 7 Sudeste 0.1 999.8 0.8 95
2019-11-28 03:00:00 10.3 6 Sur 9 Sudeste 0.1 998.6 -0.3 96
2019-11-28 02:00:00 10.8 2 Oeste 5 Oeste 0 998.6 0 95
2019-11-28 01:00:00 11.4 2 Sur 10 Oeste 0.1 999 0.7 95
2019-11-28 00:00:00 11 4 Oeste 10 Sur 0 998.9 0.3 95
2019-11-27 23:00:00 11 7 Sur 10 Sur 0 998.6 -0.6 96
2019-11-27 22:00:00 11 7 Sudeste 12 Sudeste 0 998.3 -0.4 95
2019-11-27 21:00:00 10.9 8 Sudeste 13 Sudeste 0.1 998.6 0.6 95
2019-11-27 20:00:00 11.4 7 Sur 14 Sudeste 0.1 999.2 0.8 95
2019-11-27 19:00:00 11.4 9 Sudeste 23 Sudeste 0 998.7 1.3 95
2019-11-27 18:00:00 11.6 10 Sur 16 Sur 0.1 998 1.4 94
2019-11-27 17:00:00 12.3 8 Oeste 45 Noroeste 1.1 998.4 1.8 92
2019-11-27 16:00:00 14.6 7 Noroeste 17 Sudoeste 0 997.4 0.5 85
2019-11-27 15:00:00 15.6 9 Sudoeste 23 Sudoeste 0 996.6 -1 66
2019-11-27 14:00:00 15.4 5 Sudoeste 19 Sudoeste 0 996.6 -1.3 69
2019-11-27 06:00:00 10.6 8 Sur 11 Sur 0 994.5 1.1 88
2019-11-27 05:00:00 10.9 3 Sudoeste 9 Sudeste 0 994.5 2 92
2019-11-27 04:00:00 11 6 Sudeste 11 Sudeste 0 994 1.6 95
2019-11-27 03:00:00 10.7 5 Sudeste 29 Sudeste 0 993.4 1.9 95
2019-11-27 02:00:00 10.8 3 Sur 7 Sur 0 992.5 1 95
2019-11-27 01:00:00 11.4 0 Calma 6 Norte 0 992.4 0.7 95
2019-11-27 00:00:00 11.5 6 Sudeste 11 Oeste 0 991.5 -0.1 95
2019-11-26 23:00:00 12.3 6 Noroeste 29 Noroeste 0 991.5 2.6 95
2019-11-26 22:00:00 12.5 17 Noroeste 58 Noroeste 2 991.7 2.6 96
2019-11-26 21:00:00 15.4 24 Oeste 71 Sudoeste 0 991.6 2.6 55
2019-11-26 20:00:00 19.7 21 Sudoeste 45 Sudoeste 0 988.9 -0.9 50
2019-11-26 19:00:00 18.3 15 Sur 69 Sudoeste 0 989.1 -1.9 75
2019-11-26 18:00:00 19.3 6 Sudoeste 28 Sudoeste 0 989 -3.2 67
2019-11-26 17:00:00 18.6 5 Sur 20 Sudoeste 0 989.8 -3.8 72
2019-11-26 16:00:00 18.6 7 Sudoeste 25 Sur 0 991 -3 71
2019-11-26 15:00:00 19 10 Sudoeste 27 Oeste 0 992.2 -2.4 71
2019-11-26 14:00:00 19.4 12 Sudoeste 46 Sudoeste 0 993.6 -1.9 66
2019-11-26 13:00:00 19.5 18 Sudoeste 56 Sudoeste 0 994 -1.7 65
2019-11-26 12:00:00 19 22 Sudoeste 56 Sudoeste 0 994.6 -1.2 67
2019-11-26 11:00:00 17.9 14 Sur 48 Sudoeste 0 995.5 -0.5 71
2019-11-26 10:00:00 17.4 15 Sur 38 Sur 0 995.7 -0.7 71
2019-11-26 09:00:00 16.8 10 Sur 30 Sur 0 995.8 -0.7 71
2019-11-26 08:00:00 16.4 14 Sur 31 Sur 0 996 -0.5 72
2019-11-26 07:00:00 16.1 13 Sur 34 Sur 0 996.4 -1.2 72
2019-11-26 06:00:00 15.8 14 Sur 35 Sur 0 996.5 -1.2 71
2019-11-26 05:00:00 15.1 14 Sur 32 Sudeste 0 996.5 -2.1 73
2019-11-26 04:00:00 14.5 14 Sur 27 Sur 0 997.6 -1.6 76
2019-11-26 03:00:00 14.5 11 Sur 24 Sur 0 997.7 -2.2 76
2019-11-26 02:00:00 13.9 10 Sur 20 Sur 0 998.6 -2.3 81
2019-11-26 01:00:00 12.7 11 Sur 24 Sur 0 999.2 -2.8 90
2019-11-26 00:00:00 11.4 9 Sur 18 Sudeste 0 999.9 -2.9 96
2019-11-25 23:00:00 10.6 5 Sudeste 10 Sudeste 0 1000.9 -2 96
2019-11-25 22:00:00 11.6 6 Sur 9 Sudeste 0 1002 -1.2 95
2019-11-25 21:00:00 12.5 5 Sur 6 Sur 0 1002.8 -0.1 95
2019-11-25 20:00:00 13.6 0 Calma 3 Sudeste 0 1002.9 0.2 93
2019-11-25 19:00:00 14.1 0 Calma 5 Este 0 1003.2 0.8 92
2019-11-25 18:00:00 14.2 3 Noroeste 8 Oeste 0 1002.9 1.1 92
2019-11-25 17:00:00 14.5 2 Noroeste 10 Norte 0 1002.7 0.7 92
2019-11-25 16:00:00 14.9 3 Norte 8 Norte 0 1002.4 0.4 91
2019-11-25 15:00:00 15.5 3 Norte 9 Noroeste 0 1001.8 -0.3 90
2019-11-25 14:00:00 15.2 4 Noroeste 12 Noroeste 0 1002 0.6 90
2019-11-25 13:00:00 15.9 5 Norte 12 Norte 0 1002 1 90
2019-11-25 12:00:00 15.8 4 Norte 6 Norte 0 1002.1 2.1 89
2019-11-25 11:00:00 14.2 0 Calma 4 Oeste 0.1 1001.4 1.7 96
2019-11-25 10:00:00 13.3 0 Calma 5 Sur 0 1001 1.7 97
2019-11-25 09:00:00 12.5 6 Sur 11 Sur 0.2 1000 1.6 97
2019-11-25 08:00:00 13.2 0 Calma 11 Noroeste 0.2 999.7 2.9 96
2019-11-25 07:00:00 14 3 Noroeste 14 Sudoeste 0.1 999.3 2.4 95
2019-11-25 06:00:00 14.2 8 Sudoeste 25 Sur 0 998.4 1 81
2019-11-25 05:00:00 14 12 Sur 26 Sudeste 0 996.8 -1.1 80
2019-11-25 04:00:00 14.3 15 Sur 33 Sudoeste 0 996.9 -1.5 78
2019-11-25 03:00:00 13.5 10 Sur 30 Sur 0 997.4 -0.6 81
2019-11-25 02:00:00 13.8 8 Sur 22 Sudoeste 0 997.9 -0.3 79
2019-11-25 01:00:00 14 12 Sudoeste 30 Sudoeste 0 998.4 -0.2 79
2019-11-25 00:00:00 13.6 12 Sur 31 Sur 0 998 0.2 79
2019-11-24 23:00:00 11.8 10 Sur 28 Sur 0 998.2 0.3 91
2019-11-24 22:00:00 12.1 15 Sudoeste 30 Sudoeste 2.2 998.6 0.5 93
2019-11-24 21:00:00 12.5 12 Sur 26 Sur 0.1 997.8 -0.8 79
2019-11-24 20:00:00 12 10 Sur 30 Sur 0 997.9 -1.7 74
2019-11-24 19:00:00 12.2 13 Sudeste 28 Sudeste 0 998.1 -2.2 75
2019-11-24 18:00:00 12.3 10 Sur 21 Sur 0 998.6 -2.1 72
2019-11-24 17:00:00 12.4 7 Sur 21 Sur 0 999.6 -2.1 75
2019-11-24 16:00:00 12.8 9 Sur 19 Sudeste 0 1000.3 -2.1 78
2019-11-24 15:00:00 12.9 9 Sudeste 18 Sudeste 0 1000.7 -2.3 82
2019-11-24 14:00:00 12.5 7 Sur 13 Sur 0 1001.7 -1.8 89
2019-11-24 13:00:00 11.9 7 Sur 12 Sur 0 1002.4 -0.7 92
2019-11-24 12:00:00 11.4 6 Sudeste 10 Sudeste 0 1003 0.3 92
2019-11-24 11:00:00 11.7 6 Oeste 26 Noroeste 0 1003.5 1.3 87
2019-11-24 10:00:00 11.2 9 Oeste 28 Oeste 0 1003.1 1.8 89
2019-11-24 09:00:00 10.9 15 Oeste 31 Oeste 0.1 1002.7 1.8 90
2019-11-24 08:00:00 10.5 13 Oeste 34 Oeste 0.1 1002.2 1.8 93
2019-11-24 07:00:00 10.6 15 Oeste 45 Oeste 0.2 1001.3 1.3 91
2019-11-24 06:00:00 11 14 Oeste 42 Oeste 0.1 1000.9 0.9 90
2019-11-24 05:00:00 10.7 20 Oeste 44 Oeste 0.1 1000.4 1.1 90
2019-11-24 04:00:00 10.6 21 Oeste 46 Oeste 0.4 1000 1.4 91
2019-11-24 03:00:00 10.2 22 Oeste 42 Oeste 1.1 1000 1.4 95
2019-11-24 02:00:00 10 19 Oeste 48 Oeste 1 999.3 1.1 95
2019-11-24 01:00:00 10.5 18 Oeste 50 Oeste 0.4 998.6 1 92
2019-11-24 00:00:00 10.2 18 Oeste 48 Oeste 0.4 998.6 1.3 92
2019-11-23 23:00:00 10.3 22 Oeste 54 Oeste 0.1 998.2 1.6 90
2019-11-23 22:00:00 10.4 25 Noroeste 50 Noroeste 0.1 997.6 1.9 89
2019-11-23 21:00:00 10.3 25 Oeste 48 Oeste 0.6 997.3 2.8 91
2019-11-23 20:00:00 9.9 25 Noroeste 52 Oeste 1 996.6 2.5 95
2019-11-23 19:00:00 10.3 24 Oeste 57 Oeste 0.1 995.7 3.4 91
2019-11-23 18:00:00 10.7 27 Oeste 49 Noroeste 1.9 994.5 3.4 90
2019-11-23 17:00:00 10.5 17 Noroeste 48 Oeste 4.9 994.1 3.7 95
2019-11-23 16:00:00 12.2 30 Noroeste 59 Noroeste 2.7 992.3 2.5 87
2019-11-23 15:00:00 12.7 36 Noroeste 63 Oeste 0.2 991.1 1.9 81
2019-11-23 14:00:00 12.9 32 Noroeste 64 Oeste 0 990.4 2.8 75
2019-11-23 13:00:00 12.2 39 Noroeste 69 Noroeste 0.1 989.8 4.2 77
2019-11-23 12:00:00 11.3 40 Noroeste 72 Oeste 3.9 989.2 5.8 89
2019-11-23 11:00:00 12.6 34 Noroeste 74 Noroeste 0 987.6 6.1 77
2019-11-23 10:00:00 12.1 43 Noroeste 87 Noroeste 0.3 985.6 6.2 78
2019-11-23 09:00:00 10.9 49 Noroeste 96 Oeste 3 983.4 5.7 95
2019-11-23 08:00:00 10.6 57 Noroeste 91 Oeste 4.5 981.5 4.4 96
2019-11-23 07:00:00 11 53 Noroeste 89 Noroeste 3 979.4 2.6 96
2019-11-23 06:00:00 11.1 32 Noroeste 63 Oeste 4.6 977.7 2.3 96
2019-11-23 05:00:00 11.2 24 Oeste 48 Oeste 1.8 977.1 2.4 94
2019-11-23 04:00:00 10.9 9 Sudoeste 22 Sudoeste 2.3 976.8 2.9 92
2019-11-23 03:00:00 13.8 9 Oeste 33 Sudoeste 0 975.4 1.5 66
2019-11-23 02:00:00 14.6 13 Sudoeste 35 Sudoeste 0 974.7 1.2 59
2019-11-23 01:00:00 14.4 14 Sudoeste 39 Sudoeste 0 973.9 0.3 60
2019-11-23 00:00:00 14.4 16 Sudoeste 46 Sudoeste 0 973.9 0 62
2019-11-22 23:00:00 14.5 21 Sudoeste 47 Sudoeste 0 973.5 -0.7 61
2019-11-22 22:00:00 14.4 21 Sudoeste 42 Sudoeste 0 973.6 -1 61
2019-11-22 21:00:00 14.7 18 Sudoeste 55 Oeste 0 973.9 -0.5 61
2019-11-22 20:00:00 13.1 9 Sur 23 Sudoeste 0 974.2 0.5 81
2019-11-22 19:00:00 13.4 0 Calma 20 Sudeste 0 974.6 0.9 83
2019-11-22 18:00:00 13.3 12 Sur 27 Sudeste 0 974.4 0.1 81
2019-11-22 17:00:00 13.7 10 Sur 34 Sur 0 973.7 -1.9 80
2019-11-22 16:00:00 13.4 16 Sur 35 Sur 0 973.7 -4.5 80
2019-11-22 15:00:00 13 14 Sudeste 39 Sudeste 0.4 974.3 -4.1 84
2019-11-22 14:00:00 12.4 13 Sudeste 32 Sudeste 0.4 975.6 -4.3 83
2019-11-22 13:00:00 13.6 10 Sur 39 Sur 0 978.2 -3.9 71
2019-11-22 12:00:00 14.3 21 Sur 49 Sur 0 978.4 -5.3 64
2019-11-22 11:00:00 13.4 16 Sur 42 Sur 0 979.9 -4.7 67
2019-11-22 10:00:00 12.1 15 Sudeste 48 Sudeste 0 982.1 -4.1 70
2019-11-22 09:00:00 12.6 12 Sur 38 Sur 0 983.7 -3.6 66
2019-11-22 08:00:00 12.2 16 Sur 37 Sur 0 984.6 -4.1 69
2019-11-22 07:00:00 11.1 12 Sur 25 Sur 0 986.2 -3.7 73
2019-11-22 06:00:00 11 10 Sur 25 Sudeste 0 987.3 -3.1 73
2019-11-22 05:00:00 11.3 10 Sur 28 Sur 0 988.7 -2.7 70
2019-11-22 04:00:00 11.1 10 Sur 27 Sur 0 989.9 -2.4 72
2019-11-22 03:00:00 11.1 12 Sur 23 Sur 0 990.4 -3 71
2019-11-22 02:00:00 10.3 9 Sur 26 Sur 0 991.4 -2.2 74
2019-11-22 01:00:00 10.8 13 Sur 32 Sur 0 992.3 -2 71
2019-11-22 00:00:00 9.7 9 Sur 19 Sur 0 993.4 -1.3 76
2019-11-21 23:00:00 8.4 10 Sudeste 16 Sudeste 0 993.6 -1.7 84
2019-11-21 22:00:00 8.2 9 Sur 16 Sudeste 0 994.3 -0.7 90
2019-11-21 21:00:00 7.8 9 Sur 15 Sur 0 994.7 -0.2 90
2019-11-21 20:00:00 8.7 6 Sur 10 Sur 0 995.3 0.5 87
2019-11-21 19:00:00 9.8 6 Sur 10 Sudeste 0 995 0.4 84
2019-11-21 18:00:00 11.2 2 Sur 6 Oeste 0 994.9 0.8 76
2019-11-21 17:00:00 12.8 4 Noroeste 16 Noroeste 0 994.8 0.8 67
2019-11-21 16:00:00 13.6 9 Noroeste 17 Noroeste 0 994.6 0.3 60
2019-11-21 15:00:00 14 5 Noroeste 13 Noroeste 0 994.1 -0.5 63
2019-11-21 14:00:00 13.3 5 Noroeste 15 Noroeste 0 994 -0.5 65
2019-11-21 13:00:00 15.1 8 Oeste 20 Sudoeste 0 994.3 0.2 55
2019-11-21 12:00:00 13.5 9 Sudoeste 30 Sudoeste 0 994.6 0.6 63
2019-11-21 11:00:00 13.5 13 Sudoeste 32 Oeste 0 994.5 0.8 63
2019-11-21 10:00:00 12.1 14 Sudoeste 29 Sudoeste 0 994.1 0.6 66
2019-11-21 09:00:00 11.6 11 Sudoeste 29 Sur 0 994 0.6 70
2019-11-21 08:00:00 -- -- -- -- -- -- -- -- --
2019-11-21 07:00:00 -- -- -- -- -- -- -- -- --
2019-11-21 06:00:00 -- -- -- -- -- -- -- -- --
2019-11-21 05:00:00 -- -- -- -- -- -- -- -- --
2019-11-21 04:00:00 -- -- -- -- -- -- -- -- --
2019-11-21 03:00:00 -- -- -- -- -- -- -- -- --
2019-11-21 02:00:00 -- -- -- -- -- -- -- -- --
2019-11-21 01:00:00 -- -- -- -- -- -- -- -- --
2019-11-21 00:00:00 -- -- -- -- -- -- -- -- --
2019-11-20 23:00:00 -- -- -- -- -- -- -- -- --
2019-11-20 22:00:00 -- -- -- -- -- -- -- -- --
2019-11-20 21:00:00 -- -- -- -- -- -- -- -- --
2019-11-20 20:00:00 -- -- -- -- -- -- -- -- --
2019-11-20 19:00:00 11.2 16 Sur 39 Sur 0 994.1 -0.5 70
2019-11-20 18:00:00 11.6 16 Sur 32 Sur 0 994.2 -0.3 71
2019-11-20 17:00:00 12 9 Sur 21 Sur 0.1 994.8 -0.2 73
2019-11-20 16:00:00 12.1 7 Sur 24 Sur 0.1 994.6 -1.3 75
2019-11-20 15:00:00 12.9 11 Sur 26 Sur 0 994.5 -2 63
2019-11-20 14:00:00 13 14 Sur 27 Sur 0 995 -1.9 60
2019-11-20 13:00:00 14.3 13 Sur 26 Sur 0 995.9 -1.2 58
2019-11-20 12:00:00 13.2 13 Sur 26 Sur 0 996.5 -0.8 63
2019-11-20 11:00:00 11.8 12 Sur 27 Sur 0 996.9 -0.7 67
2019-11-20 10:00:00 10.4 12 Sur 25 Sur 0 997.1 -0.5 73
2019-11-20 09:00:00 9.3 10 Sur 20 Sur 0 997.3 -0.5 79
2019-11-20 08:00:00 8.5 9 Sur 19 Sur 0 997.6 -1 83
2019-11-20 07:00:00 7.9 9 Sur 19 Sur 0 997.6 -1.5 85
2019-11-20 06:00:00 7.4 9 Sur 17 Sur 0 997.8 -1.8 86
2019-11-20 05:00:00 7.6 10 Sur 19 Sur 0 998.6 -1.6 86
2019-11-20 04:00:00 7.5 9 Sur 18 Sur 0 999.1 -1.8 85
2019-11-20 03:00:00 7.4 9 Sur 18 Sur 0 999.6 -1.9 85
2019-11-20 02:00:00 7.5 10 Sur 17 Sudeste 0 1000.2 -2 85
2019-11-20 01:00:00 7.4 9 Sur 16 Sur 0 1000.9 -1.5 86
2019-11-20 00:00:00 7.4 8 Sur 14 Sur 0 1001.5 -1 87
2019-11-19 23:00:00 7.5 9 Sudeste 14 Sudeste 0 1002.2 -0.7 87
2019-11-19 22:00:00 7.7 8 Sur 16 Sur 0 1002.4 -0.6 87
2019-11-19 21:00:00 7.9 7 Sur 15 Sur 0 1002.5 -0.6 87
2019-11-19 20:00:00 8.3 8 Sur 14 Sur 0 1002.9 -0.4 87
2019-11-19 19:00:00 8.7 6 Sur 15 Sur 0 1003 -0.5 87
2019-11-19 18:00:00 9.5 8 Sudeste 14 Sudeste 0 1003.1 -1 86
2019-11-19 17:00:00 10.7 9 Sudeste 17 Sur 0 1003.3 -1.4 80
2019-11-19 16:00:00 11.9 6 Sur 21 Sur 0 1003.5 -2.2 67
2019-11-19 15:00:00 12.6 11 Sur 21 Sur 0 1004.1 -2.9 66
2019-11-19 14:00:00 12.2 9 Sudeste 27 Sudeste 0 1004.7 -3 71
2019-11-19 13:00:00 11.2 12 Sudeste 23 Sur 0 1005.7 -2.3 79
2019-11-19 12:00:00 9.9 9 Sudeste 22 Sudeste 0 1007 -1 88
2019-11-19 11:00:00 8.3 11 Sudeste 19 Sudeste 0 1007.7 -0.2 95
2019-11-19 10:00:00 6.7 9 Sudeste 19 Sudeste 0 1008 0.2 98
2019-11-19 09:00:00 5.6 9 Sur 16 Sur 0 1008 0.4 98
2019-11-19 08:00:00 4.8 7 Sur 14 Sur 0 1007.9 -0.1 98
2019-11-19 07:00:00 5.4 9 Sur 14 Sur 0 1007.8 -0.3 98
2019-11-19 06:00:00 5.8 8 Sur 14 Sur 0.1 1007.6 -0.9 98
2019-11-19 05:00:00 5.9 9 Sur 16 Sudeste 0 1008 -0.3 98
2019-11-19 04:00:00 6.2 8 Sur 13 Sudeste 0 1008.1 -1 98
2019-11-19 03:00:00 6.8 8 Sur 13 Sur 0 1008.5 -0.9 98
2019-11-19 02:00:00 6.5 8 Sudeste 13 Sudeste 0 1008.3 -1.2 98
2019-11-19 01:00:00 7.1 8 Sur 13 Sur 0.7 1009.1 -0.4 98
2019-11-19 00:00:00 7.6 6 Sur 12 Sur 0.2 1009.4 -0.1 97
2019-11-18 23:00:00 7.4 9 Sudeste 15 Sudeste 0.3 1009.5 0.6 97
2019-11-18 22:00:00 7.8 6 Sur 13 Sur 0 1009.5 0.6 95
2019-11-18 21:00:00 8.5 5 Sur 11 Oeste 0 1009.5 1.3 93
2019-11-18 20:00:00 9.7 5 Oeste 24 Noroeste 0 1008.9 0.7 90
2019-11-18 19:00:00 9 4 Sudeste 10 Nordeste 0 1008.9 1.2 88
2019-11-18 18:00:00 10.7 6 Noroeste 16 Norte 0 1008.2 0.8 78
2019-11-18 17:00:00 10.6 6 Noroeste 17 Norte 0 1008.2 0.8 77
2019-11-18 16:00:00 10.7 7 Norte 20 Nordeste 0 1007.7 0.1 76
2019-11-18 15:00:00 10.9 8 Norte 23 Norte 0 1007.4 -0.3 75
2019-11-18 14:00:00 10.6 10 Nordeste 24 Nordeste 0 1007.4 0.3 74
2019-11-18 13:00:00 10.2 6 Norte 21 Norte 0 1007.6 0.9 84
2019-11-18 12:00:00 8.8 13 Nordeste 46 Norte 1.3 1007.7 2 92
2019-11-18 11:00:00 9.9 6 Norte 19 Noroeste 0 1007.1 2.3 91
2019-11-18 10:00:00 8.6 5 Noroeste 43 Norte 2 1006.7 2.3 94
2019-11-18 09:00:00 9.9 13 Norte 35 Norte 0 1005.7 2.1 82
2019-11-18 08:00:00 10.6 12 Norte 29 Norte 0 1004.8 1.5 76
2019-11-18 07:00:00 10.2 12 Norte 28 Norte 0 1004.4 1.7 76
2019-11-18 06:00:00 10.1 10 Norte 36 Norte 0 1003.6 1.4 81
2019-11-18 05:00:00 10.2 14 Norte 39 Norte 0 1003.3 1.4 81
2019-11-18 04:00:00 10.2 11 Norte 44 Nordeste 0.1 1002.7 1.1 80
2019-11-18 03:00:00 10.5 13 Noroeste 36 Norte 0 1002.2 1.1 82
2019-11-18 02:00:00 10.5 12 Norte 32 Norte 0 1001.9 1.3 78
2019-11-18 01:00:00 10.1 12 Norte 31 Nordeste 0 1001.6 1.8 89
2019-11-18 00:00:00 9.3 16 Nordeste 37 Norte 2.2 1001.1 2.7 95
2019-11-17 23:00:00 8.3 13 Este 32 Nordeste 7 1000.6 2.8 96
2019-11-17 22:00:00 8.9 0 Calma 26 Norte 0.5 999.8 1.9 95
2019-11-17 21:00:00 9.5 14 Oeste 36 Noroeste 0.4 998.4 0.4 93
2019-11-17 20:00:00 10.4 14 Oeste 40 Oeste 0 997.8 -0.2 78
2019-11-17 19:00:00 10.8 15 Oeste 32 Oeste 0 997.9 -0.4 80
2019-11-17 18:00:00 10.5 15 Oeste 40 Oeste 0.9 998 -0.1 88
2019-11-17 17:00:00 10.2 16 Oeste 43 Oeste 1 998 -0.5 89
2019-11-17 16:00:00 10.4 15 Noroeste 40 Oeste 1.2 998.3 -0.2 93
2019-11-17 15:00:00 11.1 20 Oeste 41 Oeste 0.4 998.1 -1 90
2019-11-17 14:00:00 11.1 18 Oeste 38 Oeste 0.6 998.5 -0.4 92
2019-11-17 13:00:00 10.9 17 Oeste 39 Oeste 2.3 998.5 -0.8 96
2019-11-17 12:00:00 9 9 Sudoeste 18 Sudoeste 1.4 999.1 -0.5 98
2019-11-17 11:00:00 7.5 10 Sudeste 23 Sudeste 0.3 998.9 -0.8 98
2019-11-17 10:00:00 7.2 11 Sudeste 19 Sudeste 2.1 999.3 -1.2 98
2019-11-17 09:00:00 7.1 9 Sur 20 Sudeste 0.4 999.6 -1.2 98
2019-11-17 08:00:00 6.8 9 Sur 17 Sur 0 999.7 -1.4 98
2019-11-17 07:00:00 6.8 8 Sur 16 Sudeste 0.6 1000.5 -1.1 98
2019-11-17 06:00:00 6.9 9 Sudeste 14 Sur 0.4 1000.8 -1.3 98
2019-11-17 05:00:00 7.1 8 Sur 13 Sudeste 0.1 1001.1 -1.4 97
2019-11-17 04:00:00 8.3 4 Sudoeste 14 Oeste 0.5 1001.6 -1.2 95
2019-11-17 03:00:00 8.3 6 Sudoeste 19 Sudoeste 0.5 1002.1 -1 94
2019-11-17 02:00:00 8.5 5 Oeste 19 Oeste 0.4 1002.5 -0.8 94
2019-11-17 01:00:00 8.2 7 Sudoeste 33 Oeste 0.4 1002.8 -0.7 93
2019-11-17 00:00:00 8.7 9 Oeste 29 Oeste 0.1 1003.1 -0.5 88
2019-11-16 23:00:00 8.5 7 Oeste 34 Noroeste 2 1003.3 -0.2 92
2019-11-16 22:00:00 8.2 8 Sudoeste 44 Oeste 1.1 1003.5 0.2 92
2019-11-16 21:00:00 8.8 22 Oeste 44 Oeste 0.2 1003.6 0.6 88
2019-11-16 20:00:00 9.4 19 Oeste 43 Sudoeste 0.2 1003.5 1.1 83
2019-11-16 19:00:00 8.6 18 Oeste 45 Oeste 0.3 1003.3 0.9 91
2019-11-16 18:00:00 8.7 19 Oeste 51 Oeste 0.6 1003 1.1 93
2019-11-16 17:00:00 9.2 20 Oeste 48 Oeste 2.1 1002.4 0.7 91
2019-11-16 16:00:00 8.8 21 Oeste 50 Oeste 1.2 1002.4 0.9 91
2019-11-16 15:00:00 9.2 27 Oeste 52 Oeste 0.9 1001.9 0 91
2019-11-16 14:00:00 8.9 22 Oeste 42 Oeste 1.3 1001.7 0 94
2019-11-16 13:00:00 8.3 23 Oeste 45 Oeste 3.8 1001.5 0 96
2019-11-16 12:00:00 7.7 18 Oeste 41 Oeste 3.2 1001.9 1.1 96
2019-11-16 11:00:00 7.8 19 Oeste 48 Oeste 3.8 1001.7 1.4 96
2019-11-16 10:00:00 8.2 17 Oeste 46 Oeste 4.9 1001.5 1.3 95
2019-11-16 09:00:00 8.8 17 Oeste 43 Oeste 0.6 1000.8 0.8 89
2019-11-16 08:00:00 7.9 12 Oeste 35 Oeste 0.3 1000.3 0.2 91
2019-11-16 07:00:00 7.5 10 Sudoeste 23 Sudoeste 0 1000.2 -0.1 91
2019-11-16 06:00:00 6.8 9 Sudoeste 20 Sudoeste 0 1000 -0.4 96
2019-11-16 05:00:00 5 8 Sudoeste 19 Sudoeste 0 1000.1 0.2 97
2019-11-16 04:00:00 3.5 8 Sur 14 Sudeste 0 1000.3 0.9 97
2019-11-16 03:00:00 3.8 8 Sur 14 Sudeste 0 1000.4 1.4 97
2019-11-16 02:00:00 3.9 9 Sur 14 Sudeste 0 999.9 1.3 97
2019-11-16 01:00:00 4.3 8 Sur 12 Sur 0 999.4 1.4 96
2019-11-16 00:00:00 4.8 8 Sur 12 Sur 0 999 1.4 96